Chicago, Illinois
Traffic Map
Current Weather Conditions
Chicago, Illinois
Few Clouds
Few Clouds
11°
Feels Like: 11°
Wind Chill: 11° Ceiling: Unl
Heat Index: 11° Visibility: 10mi
Dew Point: Wind: 15mph
Humidity: 47% Direction: 50° (NE)
Pressure: 30.07in Gusts: 0mph
Raw Report DataKMDW 251953Z 05013KT 10SM FEW250 11/00 A3007 RMK AO2 SLP187 T01110000
Traffic Incident Summary
Active as of:
Severity:
Category:
InformationThere was an issue retrieving the traffic information for this location. Please try a different location or try again shortly.
Advertisements